Home   Weather   Germany   Kehl   Past weeks
Flag for Germany

Past Weather in Kehl, Baden-Württemberg, Germany — Yesterday and Last 2 Weeks

Currently: 41 °F. Sunny. (Weather station: Strasbourg Airport, Germany). See more current weather

Past Weather in Kehl — Graph

°F

Kehl Temperature Yesterday

Maximum temperature yesterday: 55 °F (at 2:00 pm)
Minimum temperature yesterday: 36 °F (at 2:00 am)
Average temperature yesterday: 44 °F

High & Low Weather Summary for the Past Weeks

 TemperatureHumidityPressure
High70 °F (Feb 25, 3:00 pm)100% (Feb 18, 2:00 am)30.63 "Hg (Feb 18, 2:00 am)
Low28 °F (Mar 2, 5:30 am)35% (Feb 25, 4:00 pm)29.86 "Hg (Feb 18, 5:00 pm)
Average45 °F78%30.31 "Hg
* Reported Feb 17 7:00 am — Mar 4 7:30 am, Kehl. Weather by CustomWeather, © 2021

Note: Actual official high and low records may vary slightly from our data, if they occured in-between our weather recording intervals... More about our weather records

Kehl Weather History for the Previous 24 Hours

Scroll right to see more
 ConditionsComfort  
Time TempWeatherWind HumidityBarometerVisibility
7:30 am
Thu, Mar 4
39 °FClear.2 mph87%30.18 "Hg5 mi
7:00 am39 °FClear.3 mph87%30.18 "Hg5 mi
6:30 am39 °FClear.2 mph93%30.18 "Hg5 mi
6:00 am39 °FClear.2 mph87%30.18 "Hg4 mi
5:30 am39 °FClear.3 mph93%30.18 "Hg4 mi
5:00 am39 °FFog.No wind93%30.21 "Hg3 mi
4:30 am37 °FFog.2 mph93%30.21 "Hg3 mi
4:00 am39 °FFog.2 mph93%30.21 "Hg3 mi
3:30 am39 °FClear.1 mph93%30.21 "Hg4 mi
3:00 am39 °FClear.No wind93%30.24 "Hg4 mi
2:30 am41 °FClear.No wind87%30.24 "Hg4 mi
1:30 am41 °FClear.1 mph87%30.24 "Hg4 mi
12:30 am43 °FClear.No wind87%30.27 "Hg4 mi
12:00 am43 °FClear.3 mph87%30.27 "Hg4 mi
11:30 pm
Wed, Mar 3
43 °FClear.2 mph87%30.27 "Hg4 mi
11:00 pm43 °FClear.No wind87%30.27 "Hg4 mi
10:30 pm45 °FClear.No wind81%30.30 "Hg5 mi
10:00 pm45 °FClear.1 mph81%30.30 "Hg5 mi
9:30 pm46 °FClear.2 mph82%30.30 "Hg5 mi
9:00 pm46 °FClear.2 mph82%30.30 "Hg5 mi
8:30 pm46 °FClear.No wind76%30.30 "Hg6 mi
8:00 pm48 °FClear.No wind76%30.33 "Hg6 mi
7:30 pm48 °FClear.1 mph76%30.33 "Hg6 mi
7:00 pm50 °FClear.3 mph71%30.33 "Hg10 mi
6:30 pm50 °FClear.1 mph71%30.33 "Hg10 mi
6:00 pm52 °FSunny.2 mph62%30.33 "Hg10 mi
5:30 pm54 °FSunny.2 mph63%30.33 "Hg10 mi
5:00 pm54 °FSunny.2 mph63%30.33 "Hg10 mi
4:30 pm55 °FSunny.2 mph59%30.36 "Hg10 mi
4:00 pm55 °FSunny.5 mph59%30.36 "Hg10 mi
3:30 pm55 °FSunny.5 mph55%30.36 "Hg10 mi
3:00 pm55 °FSunny.3 mph55%30.36 "Hg10 mi
2:30 pm55 °FPassing clouds.5 mph55%30.36 "HgN/A
2:00 pm55 °FPassing clouds.5 mph55%30.39 "HgN/A
1:30 pm54 °FPassing clouds.6 mph58%30.39 "HgN/A
12:30 pm52 °FSunny.5 mph67%30.42 "Hg10 mi
12:00 pm50 °FSunny.5 mph67%30.42 "Hg10 mi
11:30 am48 °FPassing clouds.6 mph71%30.42 "HgN/A
11:00 am46 °FSunny.3 mph76%30.42 "Hg10 mi
10:30 am45 °FClear.5 mph76%30.42 "Hg6 mi
10:00 am43 °FSunny.5 mph81%30.42 "Hg10 mi
9:30 am39 °FClear.2 mph87%30.45 "Hg6 mi
9:00 am39 °FClear.2 mph87%30.45 "Hg6 mi
8:30 am37 °FClear.2 mph87%30.45 "Hg5 mi
8:00 am36 °FSunny.2 mph87%30.45 "Hg10 mi
Weather by CustomWeather, © 2021

See weather overview